METAR AND TAF INFORMATION
METAR FOR EGNX
ADDS - METARS form results

(0136 UTC 29 June 2022)
Data provider http://aviationweather.gov/metar/data/
 
METAR text: EGNX 290120Z 16009KT 9999 -RA BKN035 14/10 Q1011
Conditions at: EGNX (EAST MIDLANDS , GB) observed 0120 UTC 29 June 2022
Temperature: 14.0°C (57°F)
Dewpoint: 10.0°C (50°F) [RH = 77%]
Pressure (altimeter): 29.85 inches Hg (1011.0 mb)
Winds: from the SSE (160 degrees) at 10 MPH (9 knots; 4.6 m/s)
Visibility: 6 or more miles (10+ km)
Ceiling: 3500 feet AGL
Clouds: broken clouds at 3500 feet AGL
Weather: -RA  (light rain)

METAR text: EGNX 290050Z 15008KT 120V190 9999 OVC031 15/10 Q1011
Conditions at: EGNX (EAST MIDLANDS , GB) observed 0050 UTC 29 June 2022
Temperature: 15.0°C (59°F)
Dewpoint: 10.0°C (50°F) [RH = 72%]
Pressure (altimeter): 29.85 inches Hg (1011.0 mb)
Winds: from the SSE (150 degrees) at 9 MPH (8 knots; 4.1 m/s)
Visibility: 6 or more miles (10+ km)
Ceiling: 3100 feet AGL
Clouds: overcast cloud deck at 3100 feet AGL
Weather: no significant weather observed at this time

Forecast for: EGNX (EAST MIDLANDS , GB)
Text: TAF EGNX 282256Z 2900/2924 17011KT 9999 SCT040
Forecast period: 0000 UTC 29 June 2022 to 0000 UTC 30 June 2022
Forecast type: FROM: standard forecast or significant change
Winds: from the S (170 degrees) at 13 MPH (11 knots; 5.7 m/s)
Visibility: 6 or more miles (10+ km)
Ceiling: at least 12,000 feet AGL
Clouds: scattered clouds at 4000 feet AGL
Weather: no significant weather forecast for this period
Text: TEMPO 2900/2906 7000 -RA
Forecast period: 0000 to 0600 UTC 29 June 2022
Forecast type: TEMPORARY: The following changes expected for less than half the time period
Visibility: 4 miles (7 km)
Ceiling: unknown
Clouds: missing
Weather: -RA  (light rain)
Text: PROB30
Forecast period: 0000 to 0400 UTC 29 June 2022
Forecast type: TEMPORARY: The following changes expected for less than half the time period
Visibility: 2.49 miles (4.01 km)
Ceiling: 800 feet AGL
Clouds: broken clouds at 800 feet AGL
Weather: RA DZ  (moderate rain, moderate drizzle)
Text: TEMPO 2900/2904 4000 RADZ BKN008
Forecast period: 0900 to 1600 UTC 29 June 2022
Forecast type: TEMPORARY: The following changes expected for less than half the time period
Visibility: 4 miles (7 km)
Ceiling: unknown
Clouds: missing
Weather: SHRA  (rain showers)

 AIRPORT MAP

 RUNWAY INFORMATION
Runway 09 Runway length 9491 ft Runway width 151 ft
Runway elevation 306 ft Runway displaced threshold 590 ft Runway heading 88
Runway 27 Runway length 9491 ft Runway width 151 ft
Runway elevation 282 ft Runway displaced threshold 426 ft Runway heading 268

 AIRPORT FREQUENCIES
Type APP Name APP Frequency 134.175 MHZ
Type ATIS Name ATIS Frequency 128.225 MHZ
Type Fire servi Name Frequency 121.6 MHZ
Type GND Name GND Frequency 121.9 MHZ
Type TWR Name TWR Frequency 124 MHZ

 AIRPORT NEAR NAVIGATION AIDS



Powered by Western Air Virtual